createdAt,value
2022-12-17T00:00:13.745Z,0.90
2022-12-17T00:02:59.825Z,0.90
2022-12-17T00:05:45.774Z,0.80
2022-12-17T00:08:31.779Z,0.70
2022-12-17T00:11:17.500Z,0.70
2022-12-17T00:14:03.261Z,0.70
2022-12-17T00:16:50.216Z,0.70
2022-12-17T00:19:35.896Z,0.80
2022-12-17T00:22:21.882Z,0.80
2022-12-17T00:25:07.674Z,0.80
2022-12-17T00:27:53.449Z,0.80
2022-12-17T00:30:40.491Z,0.70
2022-12-17T00:33:26.366Z,0.70
2022-12-17T00:36:12.962Z,0.70
2022-12-17T00:38:58.863Z,0.70
2022-12-17T00:41:44.700Z,0.80
2022-12-17T00:44:30.627Z,0.80
2022-12-17T00:47:16.787Z,0.80
2022-12-17T00:50:02.678Z,0.80
2022-12-17T00:52:48.488Z,0.80
2022-12-17T00:55:34.396Z,0.80
2022-12-17T00:58:20.111Z,0.90
2022-12-17T01:01:05.828Z,0.90
2022-12-17T01:03:51.336Z,0.90
2022-12-17T01:06:38.171Z,0.80
2022-12-17T01:09:23.976Z,0.80
2022-12-17T01:12:09.736Z,0.80
2022-12-17T01:14:55.521Z,0.80
2022-12-17T01:17:41.585Z,0.70
2022-12-17T01:20:28.600Z,0.70
2022-12-17T01:23:14.299Z,0.70
2022-12-17T01:26:00.034Z,0.70
2022-12-17T01:28:45.970Z,0.60
2022-12-17T01:31:35.288Z,0.70
2022-12-17T01:34:21.430Z,0.70
2022-12-17T01:37:11.367Z,0.70
2022-12-17T01:39:57.169Z,0.70
2022-12-17T01:42:43.310Z,0.80
2022-12-17T01:45:32.544Z,0.90
2022-12-17T01:48:22.479Z,0.90
2022-12-17T01:51:15.043Z,0.90
2022-12-17T01:54:06.378Z,0.80
2022-12-17T01:56:54.291Z,0.80
2022-12-17T01:59:45.652Z,0.80
2022-12-17T02:02:31.743Z,0.90
2022-12-17T02:05:17.451Z,0.90
2022-12-17T02:08:29.621Z,0.90
2022-12-17T02:11:24.508Z,0.90
2022-12-17T02:14:31.390Z,0.80
2022-12-17T02:17:22.151Z,0.70
2022-12-17T02:20:28.511Z,0.80
2022-12-17T02:23:45.001Z,0.70
2022-12-17T02:26:53.604Z,0.70
2022-12-17T02:29:41.620Z,0.80
2022-12-17T02:32:32.454Z,0.80
2022-12-17T02:35:28.915Z,0.80
2022-12-17T02:38:14.896Z,0.80
2022-12-17T02:41:03.534Z,0.70
2022-12-17T02:43:50.437Z,0.80
2022-12-17T02:46:38.205Z,0.80
2022-12-17T02:49:24.300Z,0.80
2022-12-17T02:52:10.240Z,0.80
2022-12-17T02:54:55.964Z,0.90
2022-12-17T02:57:44.016Z,0.90
2022-12-17T03:00:30.963Z,0.80
2022-12-17T03:03:16.764Z,0.80
2022-12-17T03:06:05.202Z,0.80
2022-12-17T03:08:51.064Z,0.80
2022-12-17T03:11:36.812Z,0.70
2022-12-17T03:14:22.800Z,0.60
2022-12-17T03:17:08.664Z,0.60
2022-12-17T03:19:54.476Z,0.70
2022-12-17T03:22:40.547Z,0.60
2022-12-17T03:25:46.541Z,0.70
2022-12-17T03:28:32.153Z,0.70
2022-12-17T03:31:19.017Z,0.70
2022-12-17T03:34:04.854Z,0.70
2022-12-17T03:36:51.008Z,0.70
2022-12-17T03:39:36.758Z,0.80
2022-12-17T03:42:22.941Z,0.80
2022-12-17T03:45:08.729Z,0.70
2022-12-17T03:47:54.556Z,0.80
2022-12-17T03:50:40.199Z,0.70
2022-12-17T03:53:26.087Z,0.60
2022-12-17T03:56:11.829Z,0.60
2022-12-17T03:58:58.038Z,0.60
2022-12-17T04:01:43.926Z,0.70
2022-12-17T04:04:32.049Z,0.70
2022-12-17T04:07:18.122Z,0.60
2022-12-17T04:10:03.732Z,0.60
2022-12-17T04:12:55.476Z,0.60
2022-12-17T04:15:42.517Z,0.70
2022-12-17T04:18:27.957Z,0.70
2022-12-17T04:21:13.584Z,0.60
2022-12-17T04:23:59.015Z,0.70
2022-12-17T04:26:45.124Z,0.70
2022-12-17T04:29:30.764Z,0.70
2022-12-17T04:32:17.150Z,0.70
2022-12-17T04:35:02.653Z,0.60
2022-12-17T04:37:48.874Z,0.60
2022-12-17T04:40:45.538Z,0.60
2022-12-17T04:43:33.236Z,0.70
2022-12-17T04:46:20.760Z,0.70
2022-12-17T04:49:06.571Z,0.80
2022-12-17T04:51:52.092Z,0.80
2022-12-17T04:54:37.886Z,0.80
2022-12-17T04:57:23.641Z,0.80
2022-12-17T05:00:09.216Z,0.80
2022-12-17T05:02:57.433Z,0.80
2022-12-17T05:05:42.966Z,0.80
2022-12-17T05:08:28.826Z,0.80
2022-12-17T05:11:14.250Z,0.80
2022-12-17T05:13:59.586Z,0.70
2022-12-17T05:16:45.500Z,0.70
2022-12-17T05:19:31.300Z,0.70
2022-12-17T05:22:17.257Z,0.70
2022-12-17T05:25:03.557Z,0.70
2022-12-17T05:27:52.616Z,0.70
2022-12-17T05:30:38.297Z,0.70
2022-12-17T05:33:24.149Z,0.70
2022-12-17T05:36:09.640Z,0.70
2022-12-17T05:38:55.429Z,0.70
2022-12-17T05:41:41.293Z,0.80
2022-12-17T05:44:26.954Z,0.80
2022-12-17T05:47:13.586Z,0.80
2022-12-17T05:49:59.381Z,0.80
2022-12-17T05:52:44.763Z,0.80
2022-12-17T05:55:30.472Z,0.80
2022-12-17T05:58:23.502Z,0.80
2022-12-17T06:01:13.342Z,0.80
2022-12-17T06:03:59.177Z,0.80
2022-12-17T06:06:45.266Z,0.80
2022-12-17T06:09:30.897Z,0.90
2022-12-17T06:12:16.365Z,0.90
2022-12-17T06:15:02.112Z,0.90
2022-12-17T06:17:48.206Z,0.90
2022-12-17T06:20:34.298Z,0.90
2022-12-17T06:23:25.863Z,0.90
2022-12-17T06:26:12.781Z,0.90
2022-12-17T06:28:58.836Z,0.90
2022-12-17T06:31:44.642Z,0.80
2022-12-17T06:34:31.108Z,0.80
2022-12-17T06:37:16.713Z,0.70
2022-12-17T06:40:02.444Z,0.70
2022-12-17T06:42:48.010Z,0.70
2022-12-17T06:45:33.804Z,0.70
2022-12-17T06:48:25.578Z,0.80
2022-12-17T06:51:14.724Z,0.90
2022-12-17T06:54:01.687Z,0.80
2022-12-17T06:56:48.062Z,0.90
2022-12-17T06:59:35.090Z,0.90
2022-12-17T07:02:20.861Z,0.80
2022-12-17T07:05:06.613Z,0.80
2022-12-17T07:07:52.427Z,0.80
2022-12-17T07:10:38.501Z,0.90
2022-12-17T07:13:27.808Z,1.00
2022-12-17T07:16:14.347Z,1.10
2022-12-17T07:18:59.829Z,1.10
2022-12-17T07:21:45.885Z,1.10
2022-12-17T07:24:38.223Z,1.10
2022-12-17T07:27:23.840Z,1.20
2022-12-17T07:30:09.688Z,1.30
2022-12-17T07:32:55.484Z,1.40
2022-12-17T07:35:42.243Z,1.40
2022-12-17T07:38:28.988Z,1.40
2022-12-17T07:41:14.979Z,1.50
2022-12-17T07:44:00.940Z,1.50
2022-12-17T07:46:46.857Z,1.40
2022-12-17T07:49:32.177Z,1.40
2022-12-17T07:52:18.138Z,1.30
2022-12-17T07:55:03.852Z,1.30
2022-12-17T07:57:49.723Z,1.30
2022-12-17T08:00:35.729Z,1.30
2022-12-17T08:03:22.200Z,1.30
2022-12-17T08:06:08.017Z,1.30
2022-12-17T08:08:53.739Z,1.20
2022-12-17T08:11:40.210Z,1.30
2022-12-17T08:14:32.308Z,1.40
2022-12-17T08:17:18.359Z,1.60
2022-12-17T08:20:04.469Z,1.60
2022-12-17T08:22:50.130Z,1.70
2022-12-17T08:25:37.022Z,1.70
2022-12-17T08:31:28.795Z,1.70
2022-12-17T08:34:14.523Z,1.70
2022-12-17T08:37:00.408Z,1.80
2022-12-17T08:39:46.164Z,1.80
2022-12-17T08:42:31.926Z,1.90
2022-12-17T08:45:17.843Z,1.90
2022-12-17T08:48:04.453Z,2.10
2022-12-17T08:50:50.569Z,2.10
2022-12-17T08:53:36.843Z,2.10
2022-12-17T08:56:23.674Z,2.10
2022-12-17T08:59:09.574Z,2.10
2022-12-17T09:01:55.332Z,2.00
2022-12-17T09:04:41.851Z,2.00
2022-12-17T09:07:27.885Z,2.00
2022-12-17T09:10:13.666Z,2.10
2022-12-17T09:13:04.397Z,2.20
2022-12-17T09:15:50.989Z,2.30
2022-12-17T09:18:38.356Z,2.30
2022-12-17T09:21:24.486Z,2.30
2022-12-17T09:24:10.485Z,2.30
2022-12-17T09:26:56.360Z,2.20
2022-12-17T09:29:42.463Z,2.20
2022-12-17T09:32:28.294Z,2.20
2022-12-17T09:35:14.034Z,2.40
2022-12-17T09:37:59.482Z,2.60
2022-12-17T09:40:45.201Z,2.70
2022-12-17T09:44:00.550Z,2.70
2022-12-17T09:47:04.490Z,2.70
2022-12-17T09:49:51.513Z,2.50
2022-12-17T09:52:47.502Z,2.70
2022-12-17T09:55:46.132Z,2.70
2022-12-17T09:58:43.407Z,2.70
2022-12-17T10:01:44.218Z,2.70
2022-12-17T10:04:38.049Z,2.90
2022-12-17T10:07:31.880Z,3.00
2022-12-17T10:10:21.274Z,2.90
2022-12-17T10:13:06.824Z,2.80
2022-12-17T10:15:52.550Z,2.90
2022-12-17T10:18:55.069Z,2.90
2022-12-17T10:21:43.948Z,2.80
2022-12-17T10:24:29.802Z,2.80
2022-12-17T10:27:15.596Z,2.80
2022-12-17T10:30:04.383Z,2.80
2022-12-17T10:32:51.848Z,2.90
2022-12-17T10:35:53.204Z,2.90
2022-12-17T10:38:48.228Z,2.90
2022-12-17T10:41:46.226Z,2.80
2022-12-17T10:44:45.695Z,2.80
2022-12-17T10:47:33.664Z,2.60
2022-12-17T10:50:21.695Z,2.70
2022-12-17T10:53:07.894Z,2.60
2022-12-17T10:55:54.537Z,2.60
2022-12-17T10:58:44.250Z,2.60
2022-12-17T11:01:38.992Z,2.60
2022-12-17T11:04:47.025Z,2.70
2022-12-17T11:07:55.115Z,2.70
2022-12-17T11:10:57.313Z,2.70
2022-12-17T11:13:58.706Z,2.70
2022-12-17T11:17:00.165Z,2.70
2022-12-17T11:19:55.118Z,2.60
2022-12-17T11:22:51.064Z,2.60
2022-12-17T11:25:51.740Z,2.50
2022-12-17T11:28:42.343Z,2.50
2022-12-17T11:31:37.263Z,2.30
2022-12-17T11:34:52.417Z,2.30
2022-12-17T11:37:48.016Z,2.10
2022-12-17T11:40:53.155Z,2.00
2022-12-17T11:43:52.533Z,2.00
2022-12-17T11:47:19.974Z,2.10
2022-12-17T11:50:11.661Z,2.00
2022-12-17T11:53:24.276Z,2.00
2022-12-17T11:56:45.404Z,2.00
2022-12-17T11:59:50.963Z,2.10
2022-12-17T12:03:13.110Z,2.00
2022-12-17T12:06:17.753Z,2.10
2022-12-17T12:09:12.295Z,2.30
2022-12-17T12:12:18.553Z,2.40
2022-12-17T12:15:25.378Z,2.40
2022-12-17T12:18:17.437Z,2.50
2022-12-17T12:21:21.711Z,2.40
2022-12-17T12:24:32.893Z,2.40
2022-12-17T12:27:53.629Z,2.50
2022-12-17T12:30:45.019Z,2.50
2022-12-17T12:33:46.813Z,2.50
2022-12-17T12:36:37.991Z,2.50
2022-12-17T12:39:29.072Z,2.60
2022-12-17T12:42:32.206Z,2.50
2022-12-17T12:45:25.749Z,2.40
2022-12-17T12:48:24.163Z,2.50
2022-12-17T12:51:18.956Z,2.50
2022-12-17T12:54:16.064Z,2.40
2022-12-17T12:57:02.106Z,2.30
2022-12-17T12:59:54.222Z,2.30
2022-12-17T13:02:45.771Z,2.30
2022-12-17T13:05:33.261Z,2.30
2022-12-17T13:08:03.740Z,2.20
2022-12-17T13:10:32.598Z,2.20
2022-12-17T13:13:16.982Z,2.10
2022-12-17T13:15:49.145Z,2.10
2022-12-17T13:18:37.014Z,2.00
2022-12-17T13:21:23.389Z,2.00
2022-12-17T13:23:50.618Z,1.90
2022-12-17T13:26:25.726Z,1.90
2022-12-17T13:28:57.044Z,1.90
2022-12-17T13:31:50.142Z,1.80
2022-12-17T13:34:26.062Z,1.80
2022-12-17T13:37:05.162Z,1.70
2022-12-17T13:39:39.873Z,1.80
2022-12-17T13:42:18.085Z,1.80
2022-12-17T13:44:46.826Z,1.80
2022-12-17T13:47:25.873Z,1.80
2022-12-17T13:50:31.674Z,1.80
2022-12-17T13:52:42.593Z,1.90
2022-12-17T13:55:17.361Z,1.80
2022-12-17T13:57:47.531Z,1.80
2022-12-17T14:00:21.495Z,1.80
2022-12-17T14:02:49.134Z,1.70
2022-12-17T14:05:33.323Z,1.70
2022-12-17T14:08:02.658Z,1.70
2022-12-17T14:10:30.183Z,1.70
2022-12-17T14:13:10.685Z,1.60
2022-12-17T14:15:38.182Z,1.60
2022-12-17T14:18:05.612Z,1.50
2022-12-17T14:20:35.397Z,1.50
2022-12-17T14:23:02.581Z,1.40
2022-12-17T14:25:38.175Z,1.40
2022-12-17T14:28:20.129Z,1.40
2022-12-17T14:31:24.505Z,1.40
2022-12-17T14:33:37.844Z,1.30
2022-12-17T14:36:21.543Z,1.30
2022-12-17T14:39:04.211Z,1.30
2022-12-17T14:41:56.719Z,1.20
2022-12-17T14:44:29.418Z,1.20
2022-12-17T14:47:13.127Z,1.20
2022-12-17T14:49:55.620Z,1.20
2022-12-17T14:52:35.373Z,1.10
2022-12-17T14:55:22.073Z,1.10
2022-12-17T14:57:50.268Z,1.10
2022-12-17T15:00:18.574Z,1.10
2022-12-17T15:02:52.424Z,1.00
2022-12-17T15:05:19.996Z,1.00
2022-12-17T15:07:47.245Z,1.00
2022-12-17T15:10:19.347Z,1.00
2022-12-17T15:12:47.891Z,1.00
2022-12-17T15:15:16.443Z,0.90
2022-12-17T15:17:43.796Z,0.90
2022-12-17T15:20:17.792Z,0.90
2022-12-17T15:22:45.979Z,0.90
2022-12-17T15:25:15.688Z,0.90
2022-12-17T15:27:42.953Z,0.90
2022-12-17T15:30:14.698Z,0.90
2022-12-17T15:32:42.278Z,0.90
2022-12-17T15:35:11.241Z,0.90
2022-12-17T15:37:38.582Z,0.90
2022-12-17T15:40:07.126Z,0.90
2022-12-17T15:42:52.650Z,0.90
2022-12-17T15:45:19.899Z,0.80
2022-12-17T15:47:48.353Z,0.80
2022-12-17T15:50:15.468Z,0.80
2022-12-17T15:52:42.605Z,0.80
2022-12-17T15:55:10.119Z,0.80
2022-12-17T15:57:37.314Z,0.70
2022-12-17T16:00:04.990Z,0.70
2022-12-17T16:02:32.426Z,0.70
2022-12-17T16:05:01.166Z,0.70
2022-12-17T16:07:28.341Z,0.70
2022-12-17T16:09:57.965Z,0.60
2022-12-17T16:12:28.986Z,0.70
2022-12-17T16:14:56.243Z,0.60
2022-12-17T16:17:23.432Z,0.60
2022-12-17T16:19:50.661Z,0.60
2022-12-17T16:22:19.441Z,0.60
2022-12-17T16:24:46.762Z,0.60
2022-12-17T16:27:18.200Z,0.50
2022-12-17T16:29:46.936Z,0.50
2022-12-17T16:32:15.277Z,0.50
2022-12-17T16:34:43.400Z,0.50
2022-12-17T16:37:11.167Z,0.40
2022-12-17T16:39:38.433Z,0.40
2022-12-17T16:42:05.842Z,0.40
2022-12-17T16:44:33.361Z,0.40
2022-12-17T16:47:00.712Z,0.30
2022-12-17T16:49:28.100Z,0.30
2022-12-17T16:51:55.985Z,0.30
2022-12-17T16:54:27.207Z,0.30
2022-12-17T16:56:55.532Z,0.30
2022-12-17T16:59:23.680Z,0.30
2022-12-17T17:01:52.446Z,0.20
2022-12-17T17:04:22.200Z,0.20
2022-12-17T17:06:57.167Z,0.20
2022-12-17T17:09:25.694Z,0.20
2022-12-17T17:11:56.057Z,0.20
2022-12-17T17:14:24.161Z,0.20
2022-12-17T17:16:52.389Z,0.10
2022-12-17T17:19:20.675Z,0.10
2022-12-17T17:21:52.906Z,0.10
2022-12-17T17:24:23.989Z,0.10
2022-12-17T17:26:52.932Z,0.10
2022-12-17T17:29:20.142Z,0.10
2022-12-17T17:34:35.410Z,0.00
2022-12-17T17:37:02.620Z,0.00
2022-12-17T17:39:33.350Z,0.00
2022-12-17T17:42:01.292Z,0.00
2022-12-17T17:44:28.466Z,-0.10
2022-12-17T17:46:55.749Z,-0.10
2022-12-17T17:49:23.081Z,0.00
2022-12-17T17:54:39.429Z,-0.10
2022-12-17T17:57:07.546Z,-0.10
2022-12-17T17:59:34.730Z,-0.10
2022-12-17T18:02:02.832Z,-0.10
2022-12-17T18:04:33.117Z,-0.20
2022-12-17T18:09:47.915Z,-0.10
2022-12-17T18:12:53.741Z,-0.20
2022-12-17T18:15:20.944Z,-0.20
2022-12-17T18:17:51.481Z,-0.20
2022-12-17T18:20:18.793Z,-0.20
2022-12-17T18:22:46.751Z,-0.20
2022-12-17T18:25:15.678Z,-0.20
2022-12-17T18:27:42.953Z,-0.20
2022-12-17T18:30:10.993Z,-0.20
2022-12-17T18:32:38.219Z,-0.20
2022-12-17T18:35:05.916Z,-0.30
2022-12-17T18:37:33.330Z,-0.30
2022-12-17T18:40:00.539Z,-0.30
2022-12-17T18:42:46.256Z,-0.30
2022-12-17T18:45:13.736Z,-0.30
2022-12-17T18:47:51.242Z,-0.30
2022-12-17T18:50:21.699Z,-0.30
2022-12-17T18:52:52.058Z,-0.30
2022-12-17T18:55:20.367Z,-0.30
2022-12-17T18:57:48.272Z,-0.30
2022-12-17T19:00:15.528Z,-0.30
2022-12-17T19:02:42.958Z,-0.30
2022-12-17T19:05:10.318Z,-0.30
2022-12-17T19:07:37.581Z,-0.30
2022-12-17T19:10:06.983Z,-0.30
2022-12-17T19:12:34.069Z,-0.30
2022-12-17T19:15:01.385Z,-0.40
2022-12-17T19:17:28.574Z,-0.40
2022-12-17T19:19:55.828Z,-0.40
2022-12-17T19:22:23.055Z,-0.40
2022-12-17T19:24:50.607Z,-0.40
2022-12-17T19:27:20.876Z,-0.50
2022-12-17T19:29:51.192Z,-0.50
2022-12-17T19:32:18.384Z,-0.50
2022-12-17T19:34:45.705Z,-0.50
2022-12-17T19:37:13.366Z,-0.50
2022-12-17T19:39:40.651Z,-0.50
2022-12-17T19:42:24.746Z,-0.50
2022-12-17T19:44:55.631Z,-0.60
2022-12-17T19:47:24.382Z,-0.60
2022-12-17T19:49:51.736Z,-0.60
2022-12-17T19:52:20.923Z,-0.60
2022-12-17T19:54:48.001Z,-0.60
2022-12-17T19:57:15.259Z,-0.60
2022-12-17T19:59:42.422Z,-0.60
2022-12-17T20:02:11.302Z,-0.70
2022-12-17T20:04:38.607Z,-0.60
2022-12-17T20:07:05.808Z,-0.70
2022-12-17T20:09:32.980Z,-0.70
2022-12-17T20:12:00.134Z,-0.70
2022-12-17T20:14:28.420Z,-0.80
2022-12-17T20:16:57.698Z,-0.80
2022-12-17T20:19:27.821Z,-0.80
2022-12-17T20:21:55.530Z,-0.80
2022-12-17T20:24:30.324Z,-0.80
2022-12-17T20:26:59.553Z,-0.90
2022-12-17T20:29:27.439Z,-0.80
2022-12-17T20:31:56.541Z,-0.90
2022-12-17T20:34:24.655Z,-0.90
2022-12-17T20:36:52.558Z,-0.90
2022-12-17T20:39:25.877Z,-0.90
2022-12-17T20:41:53.556Z,-0.90
2022-12-17T20:44:20.777Z,-0.90
2022-12-17T20:46:47.987Z,-0.90
2022-12-17T20:49:16.095Z,-0.90
2022-12-17T20:51:43.657Z,-0.90
2022-12-17T20:54:11.187Z,-0.80
2022-12-17T20:56:40.004Z,-0.80
2022-12-17T20:59:08.931Z,-0.90
2022-12-17T21:01:37.484Z,-0.90
2022-12-17T21:04:08.871Z,-0.90
2022-12-17T21:06:46.927Z,-0.90
2022-12-17T21:09:16.199Z,-0.90
2022-12-17T21:11:43.398Z,-0.90
2022-12-17T21:14:14.384Z,-0.90
2022-12-17T21:16:43.306Z,-0.90
2022-12-17T21:19:14.084Z,-0.90
2022-12-17T21:21:41.493Z,-0.90
2022-12-17T21:24:09.230Z,-0.90
2022-12-17T21:26:40.337Z,-0.90
2022-12-17T21:29:08.877Z,-0.90
2022-12-17T21:31:42.587Z,-0.90
2022-12-17T21:34:21.928Z,-0.90
2022-12-17T21:36:50.495Z,-0.90
2022-12-17T21:39:18.949Z,-0.90
2022-12-17T21:42:06.307Z,-0.90
2022-12-17T21:44:33.566Z,-0.90
2022-12-17T21:47:00.802Z,-0.90
2022-12-17T21:49:28.114Z,-1.00
2022-12-17T21:51:59.240Z,-1.00
2022-12-17T21:54:26.561Z,-1.00
2022-12-17T21:56:53.706Z,-1.00
2022-12-17T21:59:20.900Z,-1.00
2022-12-17T22:01:48.278Z,-1.00
2022-12-17T22:04:15.649Z,-1.00
2022-12-17T22:06:50.349Z,-1.00
2022-12-17T22:09:27.648Z,-1.00
2022-12-17T22:12:27.713Z,-1.00
2022-12-17T22:14:55.091Z,-1.00
2022-12-17T22:17:22.812Z,-1.00
2022-12-17T22:19:50.043Z,-1.00
2022-12-17T22:22:17.124Z,-1.00
2022-12-17T22:24:44.476Z,-1.00
2022-12-17T22:27:11.841Z,-1.00
2022-12-17T22:29:57.498Z,-1.10
2022-12-17T22:32:43.701Z,-1.10
2022-12-17T22:36:10.968Z,-1.10
2022-12-17T22:42:59.617Z,-1.10
2022-12-17T22:44:33.534Z,-1.10
2022-12-17T22:44:45.730Z,-1.10
2022-12-17T22:46:21.936Z,-1.10
2022-12-17T22:48:49.198Z,-1.10
2022-12-17T22:51:21.158Z,-1.10
2022-12-17T22:54:05.926Z,-1.10
2022-12-17T22:57:03.109Z,-1.20
2022-12-17T22:59:23.018Z,-1.20
2022-12-17T23:01:50.150Z,-1.20
2022-12-17T23:04:17.569Z,-1.20
2022-12-17T23:06:45.823Z,-1.20
2022-12-17T23:09:16.102Z,-1.20
2022-12-17T23:11:43.446Z,-1.20
2022-12-17T23:14:10.896Z,-1.20
2022-12-17T23:16:38.793Z,-1.20
2022-12-17T23:19:06.879Z,-1.20
2022-12-17T23:21:34.446Z,-1.30
2022-12-17T23:24:01.907Z,-1.30
2022-12-17T23:26:31.819Z,-1.30
2022-12-17T23:29:01.902Z,-1.30
2022-12-17T23:31:33.955Z,-1.30
2022-12-17T23:34:01.096Z,-1.30
2022-12-17T23:36:28.302Z,-1.30
2022-12-17T23:38:56.686Z,-1.30
2022-12-17T23:41:27.063Z,-1.30
2022-12-17T23:43:54.787Z,-1.30
2022-12-17T23:46:23.848Z,-1.30
2022-12-17T23:48:51.815Z,-1.30
2022-12-17T23:51:20.671Z,-1.30
2022-12-17T23:53:48.324Z,-1.30
2022-12-17T23:56:20.724Z,-1.40
2022-12-17T23:58:51.879Z,-1.40
